createdAt,value
2019-04-22T00:01:13.684Z,55.04
2019-04-22T00:03:49.761Z,55.21
2019-04-22T00:06:30.816Z,55.30
2019-04-22T00:09:05.511Z,55.61
2019-04-22T00:11:38.383Z,56.04
2019-04-22T00:14:06.752Z,56.42
2019-04-22T00:16:48.781Z,56.40
2019-04-22T00:21:47.671Z,56.57
2019-04-22T00:24:10.658Z,56.59
2019-04-22T00:26:50.215Z,56.45
2019-04-22T00:29:40.769Z,56.46
2019-04-22T00:32:00.021Z,56.47
2019-04-22T00:34:29.396Z,56.64
2019-04-22T00:37:00.666Z,56.67
2019-04-22T00:39:52.055Z,56.54
2019-04-22T00:42:09.976Z,56.71
2019-04-22T00:44:41.677Z,56.74
2019-04-22T00:47:17.969Z,57.00
2019-04-22T00:52:28.065Z,57.11
2019-04-22T00:54:49.541Z,57.37
2019-04-22T00:57:15.362Z,57.40
2019-04-22T00:59:45.661Z,57.05
2019-04-22T01:02:22.994Z,57.02
2019-04-22T01:05:09.769Z,57.40
2019-04-22T01:07:17.595Z,57.75
2019-04-22T01:12:26.333Z,58.09
2019-04-22T01:14:55.594Z,58.38
2019-04-22T01:17:27.728Z,58.49
2019-04-22T01:20:13.079Z,58.47
2019-04-22T01:22:27.128Z,58.61
2019-04-22T01:24:56.139Z,58.72
2019-04-22T01:27:22.198Z,58.86
2019-04-22T01:29:51.748Z,58.97
2019-04-22T01:32:17.607Z,58.85
2019-04-22T01:35:00.644Z,58.82
2019-04-22T01:37:28.798Z,58.79
2019-04-22T01:40:09.771Z,58.86
2019-04-22T01:42:39.750Z,58.16
2019-04-22T01:45:13.995Z,58.79
2019-04-22T01:47:46.682Z,58.48
2019-04-22T01:50:15.833Z,58.56
2019-04-22T01:52:46.773Z,59.34
2019-04-22T01:57:47.723Z,58.85
2019-04-22T02:00:11.463Z,58.04
2019-04-22T02:02:48.788Z,57.95
2019-04-22T02:07:54.298Z,57.76
2019-04-22T02:10:32.332Z,57.78
2019-04-22T02:12:55.003Z,58.58
2019-04-22T02:15:28.677Z,59.11
2019-04-22T02:18:03.232Z,59.71
2019-04-22T02:20:32.939Z,60.26
2019-04-22T02:46:41.283Z,60.84
2019-04-22T02:51:26.253Z,61.05
2019-04-22T02:54:22.243Z,61.21
2019-04-22T02:59:03.927Z,61.35
2019-04-22T03:01:30.093Z,61.55
2019-04-22T03:06:34.820Z,61.71
2019-04-22T03:09:03.896Z,61.88
2019-04-22T03:11:33.426Z,62.12
2019-04-22T03:14:13.298Z,62.31
2019-04-22T03:26:43.721Z,61.98
2019-04-22T03:29:13.325Z,62.01
2019-04-22T03:37:23.283Z,60.67
2019-04-22T03:42:07.465Z,61.16
2019-04-22T03:44:39.113Z,61.34
2019-04-22T03:49:47.482Z,61.61
2019-04-22T03:57:33.144Z,62.12
2019-04-22T03:59:41.537Z,62.24
2019-04-22T04:12:23.749Z,62.26
2019-04-22T04:14:57.963Z,62.40
2019-04-22T04:17:20.729Z,61.87
2019-04-22T04:27:43.692Z,54.57
2019-04-22T04:30:08.322Z,51.78
2019-04-22T04:35:12.655Z,48.37
2019-04-22T04:40:25.100Z,44.83
2019-04-22T04:52:52.501Z,40.33
2019-04-22T04:55:18.060Z,39.13
2019-04-22T05:02:44.729Z,37.14
2019-04-22T05:05:34.977Z,37.40
2019-04-22T05:07:48.544Z,38.56
2019-04-22T05:15:18.495Z,41.22
2019-04-22T05:17:55.475Z,41.87
2019-04-22T05:20:26.963Z,45.41
2019-04-22T05:23:01.812Z,43.60
2019-04-22T05:25:19.586Z,44.08
2019-04-22T05:27:52.150Z,43.86
2019-04-22T05:30:35.876Z,43.79
2019-04-22T05:32:47.382Z,43.86
2019-04-22T05:37:56.614Z,43.84
2019-04-22T05:40:24.555Z,43.74
2019-04-22T05:42:56.375Z,43.81
2019-04-22T05:45:28.266Z,44.23
2019-04-22T05:47:57.566Z,44.15
2019-04-22T05:50:22.806Z,44.33
2019-04-22T05:53:03.382Z,44.46
2019-04-22T05:55:36.324Z,43.71
2019-04-22T05:58:02.800Z,43.75
2019-04-22T06:01:05.621Z,43.59
2019-04-22T06:03:20.904Z,44.07
2019-04-22T06:05:45.263Z,44.37
2019-04-22T06:08:10.220Z,44.36
2019-04-22T06:10:48.572Z,44.28
2019-04-22T06:13:14.618Z,43.76
2019-04-22T06:15:49.287Z,44.10
2019-04-22T06:18:23.925Z,44.43
2019-04-22T06:23:26.105Z,44.29
2019-04-22T06:28:36.999Z,44.07
2019-04-22T06:31:02.562Z,44.47
2019-04-22T06:33:34.670Z,44.32
2019-04-22T06:36:05.119Z,43.78
2019-04-22T06:41:08.609Z,44.06
2019-04-22T06:43:38.523Z,43.88
2019-04-22T06:46:09.888Z,43.93
2019-04-22T06:48:36.254Z,43.95
2019-04-22T06:51:08.222Z,43.86
2019-04-22T06:53:41.889Z,43.62
2019-04-22T06:56:12.490Z,43.26
2019-04-22T06:58:39.902Z,42.95
2019-04-22T07:01:18.201Z,42.83
2019-04-22T07:03:48.276Z,42.86
2019-04-22T07:06:33.439Z,42.73
2019-04-22T07:11:16.816Z,42.23
2019-04-22T07:13:50.358Z,42.00
2019-04-22T07:16:30.249Z,42.24
2019-04-22T07:21:24.313Z,41.95
2019-04-22T07:24:02.934Z,42.04
2019-04-22T07:26:39.636Z,42.35
2019-04-22T07:28:56.450Z,42.23
2019-04-22T07:31:42.903Z,42.35
2019-04-22T07:33:58.469Z,42.57
2019-04-22T07:39:05.567Z,42.57
2019-04-22T07:41:32.885Z,42.21
2019-04-22T07:44:13.893Z,42.44
2019-04-22T07:51:41.090Z,41.43
2019-04-22T07:54:06.509Z,41.21
2019-04-22T07:56:42.771Z,40.70
2019-04-22T07:59:09.599Z,40.65
2019-04-22T08:01:41.908Z,40.21
2019-04-22T08:04:22.899Z,40.13
2019-04-22T08:09:20.287Z,39.87
2019-04-22T08:11:49.933Z,39.73
2019-04-22T08:14:22.490Z,39.67
2019-04-22T08:16:51.995Z,39.22
2019-04-22T08:19:23.133Z,39.22
2019-04-22T08:21:50.659Z,38.51
2019-04-22T08:24:22.738Z,38.32
2019-04-22T08:26:59.349Z,38.17
2019-04-22T08:34:25.910Z,37.58
2019-04-22T08:37:37.054Z,37.47
2019-04-22T08:39:33.161Z,37.54
2019-04-22T08:42:13.887Z,37.41
2019-04-22T08:45:08.128Z,37.30
2019-04-22T08:49:50.834Z,36.89
2019-04-22T08:52:16.296Z,36.64
2019-04-22T08:54:44.598Z,36.55
2019-04-22T08:57:18.307Z,36.32
2019-04-22T08:59:48.958Z,35.86
2019-04-22T09:02:23.012Z,36.22
2019-04-22T09:04:48.026Z,36.20
2019-04-22T09:07:28.399Z,36.35
2019-04-22T09:09:53.667Z,35.83
2019-04-22T09:12:23.970Z,35.52
2019-04-22T09:14:52.057Z,34.77
2019-04-22T09:17:39.827Z,34.98
2019-04-22T09:22:27.222Z,34.95
2019-04-22T09:24:57.322Z,34.61
2019-04-22T09:27:37.132Z,34.87
2019-04-22T09:30:01.149Z,34.65
2019-04-22T09:32:33.153Z,34.73
2019-04-22T09:35:02.615Z,34.88
2019-04-22T09:37:38.977Z,35.02
2019-04-22T09:40:11.913Z,34.55
2019-04-22T09:42:39.749Z,34.21
2019-04-22T09:50:08.240Z,34.56
2019-04-22T09:52:45.663Z,34.77
2019-04-22T09:55:18.322Z,34.72
2019-04-22T09:57:47.101Z,33.86
2019-04-22T10:00:16.953Z,34.42
2019-04-22T10:02:55.403Z,33.09
2019-04-22T10:05:21.107Z,32.80
2019-04-22T10:07:54.823Z,32.90
2019-04-22T10:12:54.304Z,32.89
2019-04-22T10:15:23.343Z,33.44
2019-04-22T10:17:58.219Z,32.86
2019-04-22T10:20:27.000Z,31.83
2019-04-22T10:23:03.787Z,31.72
2019-04-22T10:25:30.160Z,31.84
2019-04-22T10:28:01.600Z,31.98
2019-04-22T10:30:39.300Z,31.87
2019-04-22T10:33:00.787Z,31.21
2019-04-22T10:35:17.198Z,30.89
2019-04-22T10:37:42.715Z,30.40
2019-04-22T10:40:19.591Z,30.36
2019-04-22T10:42:51.432Z,30.56
2019-04-22T10:45:21.988Z,30.01
2019-04-22T10:47:52.246Z,30.27
2019-04-22T10:50:26.291Z,30.14
2019-04-22T10:52:55.786Z,30.68
2019-04-22T10:55:25.752Z,30.77
2019-04-22T10:57:55.269Z,29.84
2019-04-22T11:00:24.751Z,29.25
2019-04-22T11:02:54.209Z,28.41
2019-04-22T11:05:24.125Z,28.43
2019-04-22T11:07:59.040Z,28.21
2019-04-22T11:10:37.046Z,28.30
2019-04-22T11:12:56.821Z,28.08
2019-04-22T11:15:26.730Z,27.30
2019-04-22T11:17:57.652Z,26.62
2019-04-22T11:20:27.697Z,26.38
2019-04-22T11:22:58.262Z,27.09
2019-04-22T11:25:29.834Z,28.16
2019-04-22T11:28:00.012Z,28.11
2019-04-22T11:30:30.558Z,27.65
2019-04-22T11:33:00.467Z,27.38
2019-04-22T11:35:30.168Z,27.15
2019-04-22T11:38:01.127Z,27.19
2019-04-22T11:40:37.876Z,26.90
2019-04-22T11:43:03.904Z,26.80
2019-04-22T11:45:33.651Z,26.72
2019-04-22T11:48:03.582Z,26.93
2019-04-22T11:50:33.635Z,26.18
2019-04-22T11:53:03.113Z,26.28
2019-04-22T11:55:32.953Z,25.93
2019-04-22T11:58:03.058Z,25.92
2019-04-22T12:00:36.987Z,26.06
2019-04-22T12:03:07.317Z,26.30
2019-04-22T12:05:37.572Z,26.26
2019-04-22T12:08:09.145Z,26.39
2019-04-22T12:10:48.293Z,25.80
2019-04-22T12:13:10.351Z,25.55
2019-04-22T12:15:40.807Z,25.18
2019-04-22T12:18:11.232Z,25.15
2019-04-22T12:20:41.466Z,25.02
2019-04-22T12:23:11.192Z,24.93
2019-04-22T12:25:51.653Z,24.73
2019-04-22T12:28:15.080Z,24.68
2019-04-22T12:30:45.715Z,24.61
2019-04-22T12:33:16.948Z,24.21
2019-04-22T12:35:46.565Z,24.07
2019-04-22T12:38:17.029Z,24.24
2019-04-22T12:40:55.337Z,24.03
2019-04-22T12:43:22.150Z,23.77
2019-04-22T12:45:51.980Z,24.25
2019-04-22T12:48:23.130Z,24.05
2019-04-22T12:50:55.960Z,23.94
2019-04-22T12:53:26.338Z,24.06
2019-04-22T12:55:55.869Z,24.32
2019-04-22T12:58:27.678Z,24.59
2019-04-22T13:00:57.250Z,25.04
2019-04-22T13:03:26.679Z,24.96
2019-04-22T13:05:57.401Z,24.06
2019-04-22T13:08:27.611Z,23.49
2019-04-22T13:11:02.952Z,23.59
2019-04-22T13:13:29.038Z,23.14
2019-04-22T13:15:59.341Z,22.83
2019-04-22T13:18:37.282Z,23.39
2019-04-22T13:21:00.424Z,23.04
2019-04-22T13:23:29.975Z,22.91
2019-04-22T13:26:00.901Z,23.40
2019-04-22T13:28:31.469Z,23.63
2019-04-22T13:31:02.033Z,23.81
2019-04-22T13:33:32.903Z,24.28
2019-04-22T13:36:03.773Z,24.42
2019-04-22T13:38:33.349Z,24.73
2019-04-22T13:41:17.291Z,24.78
2019-04-22T13:43:34.764Z,25.20
2019-04-22T13:46:06.012Z,26.05
2019-04-22T13:48:58.948Z,26.03
2019-04-22T13:51:36.197Z,25.88
2019-04-22T13:56:35.709Z,26.76
2019-04-22T13:58:52.827Z,27.32
2019-04-22T14:01:14.846Z,28.02
2019-04-22T14:04:14.398Z,28.38
2019-04-22T14:06:44.850Z,28.67
2019-04-22T14:09:16.718Z,28.97
2019-04-22T14:11:52.900Z,28.70
2019-04-22T14:14:17.727Z,28.54
2019-04-22T14:16:47.297Z,28.65
2019-04-22T14:19:18.262Z,28.78
2019-04-22T14:21:49.517Z,28.61
2019-04-22T14:24:19.818Z,28.94
2019-04-22T14:26:59.961Z,29.40
2019-04-22T14:29:21.755Z,29.44
2019-04-22T14:32:04.257Z,29.75
2019-04-22T14:34:24.145Z,29.66
2019-04-22T14:36:55.182Z,29.91
2019-04-22T14:39:26.146Z,30.16
2019-04-22T14:42:19.574Z,30.64
2019-04-22T14:47:19.939Z,31.38
2019-04-22T14:49:55.996Z,31.92
2019-04-22T14:52:22.733Z,32.11
2019-04-22T14:54:45.946Z,32.59
2019-04-22T14:57:05.179Z,32.60
2019-04-22T14:59:35.788Z,32.76
2019-04-22T15:02:07.676Z,32.77
2019-04-22T15:04:37.434Z,32.80
2019-04-22T15:07:08.583Z,32.67
2019-04-22T15:09:39.524Z,32.88
2019-04-22T15:12:18.419Z,33.03
2019-04-22T15:14:41.679Z,33.11
2019-04-22T15:17:42.892Z,33.26
2019-04-22T15:20:37.683Z,33.31
2019-04-22T15:23:08.489Z,33.38
2019-04-22T15:25:38.625Z,33.26
2019-04-22T15:28:09.237Z,33.29
2019-04-22T15:30:39.412Z,33.71
2019-04-22T15:33:09.702Z,34.13
2019-04-22T15:35:39.318Z,34.32
2019-04-22T15:38:09.051Z,34.67
2019-04-22T15:40:38.694Z,34.85
2019-04-22T15:43:08.774Z,35.24
2019-04-22T15:45:39.071Z,35.40
2019-04-22T15:48:10.295Z,35.76
2019-04-22T15:50:40.540Z,36.09
2019-04-22T15:53:11.540Z,36.42
2019-04-22T15:55:42.770Z,36.73
2019-04-22T15:58:12.350Z,36.89
2019-04-22T16:00:55.633Z,37.30
2019-04-22T16:03:14.304Z,37.53
2019-04-22T16:05:44.230Z,37.86
2019-04-22T16:08:14.989Z,38.26
2019-04-22T16:10:46.008Z,38.56
2019-04-22T16:13:22.335Z,38.55
2019-04-22T16:15:46.967Z,38.62
2019-04-22T16:18:18.034Z,38.49
2019-04-22T16:20:48.187Z,38.48
2019-04-22T16:23:36.267Z,38.88
2019-04-22T16:26:26.439Z,39.20
2019-04-22T16:28:58.072Z,39.47
2019-04-22T16:31:27.276Z,39.74
2019-04-22T16:33:58.316Z,39.80
2019-04-22T16:36:29.062Z,39.79
2019-04-22T16:38:58.740Z,40.20
2019-04-22T16:41:28.681Z,40.41
2019-04-22T16:43:58.784Z,40.71
2019-04-22T16:46:29.640Z,40.87
2019-04-22T16:48:59.349Z,41.14
2019-04-22T16:51:29.787Z,41.43
2019-04-22T16:54:00.015Z,41.53
2019-04-22T16:56:33.230Z,41.61
2019-04-22T16:59:01.013Z,41.46
2019-04-22T17:02:01.355Z,41.53
2019-04-22T17:04:48.936Z,41.68
2019-04-22T17:07:20.596Z,41.94
2019-04-22T17:09:50.125Z,42.08
2019-04-22T17:12:19.789Z,42.13
2019-04-22T17:14:54.769Z,42.40
2019-04-22T17:17:20.465Z,42.52
2019-04-22T17:19:51.376Z,42.73
2019-04-22T17:22:21.768Z,42.93
2019-04-22T17:24:51.845Z,43.09
2019-04-22T17:27:22.359Z,43.17
2019-04-22T17:29:52.485Z,43.41
2019-04-22T17:32:23.479Z,43.64
2019-04-22T17:34:53.860Z,43.90
2019-04-22T17:37:26.589Z,44.19
2019-04-22T17:40:10.128Z,44.30
2019-04-22T17:42:47.815Z,44.54
2019-04-22T17:45:29.451Z,44.74
2019-04-22T17:48:20.267Z,44.99
2019-04-22T17:50:52.037Z,45.18
2019-04-22T17:53:26.087Z,45.39
2019-04-22T17:55:56.813Z,45.40
2019-04-22T17:58:29.036Z,45.56
2019-04-22T18:00:56.717Z,45.70
2019-04-22T18:03:20.217Z,45.92
2019-04-22T18:05:45.885Z,46.18
2019-04-22T18:08:33.243Z,46.33
2019-04-22T18:10:59.857Z,46.45
2019-04-22T18:13:41.300Z,46.45
2019-04-22T18:16:05.454Z,46.43
2019-04-22T18:18:36.981Z,46.48
2019-04-22T18:21:00.714Z,46.52
2019-04-22T18:23:22.698Z,46.59
2019-04-22T18:26:05.119Z,46.66
2019-04-22T18:28:47.942Z,46.67
2019-04-22T18:31:06.300Z,46.81
2019-04-22T18:33:38.633Z,46.93
2019-04-22T18:36:11.261Z,46.91
2019-04-22T18:41:15.195Z,47.12
2019-04-22T18:43:48.314Z,47.23
2019-04-22T18:46:15.730Z,47.37
2019-04-22T18:48:46.442Z,47.50
2019-04-22T18:51:31.948Z,47.65
2019-04-22T18:54:21.189Z,47.78
2019-04-22T18:56:52.459Z,48.05
2019-04-22T18:59:12.416Z,48.26
2019-04-22T19:01:33.625Z,48.30
2019-04-22T19:04:11.371Z,48.46
2019-04-22T19:06:56.465Z,48.54
2019-04-22T19:09:36.174Z,48.70
2019-04-22T19:12:18.038Z,48.88
2019-04-22T19:14:43.618Z,49.20
2019-04-22T19:17:10.871Z,49.73
2019-04-22T19:19:56.174Z,49.90
2019-04-22T19:22:03.477Z,49.91
2019-04-22T19:24:34.494Z,50.11
2019-04-22T19:27:09.540Z,50.35
2019-04-22T19:29:45.103Z,50.60
2019-04-22T19:32:18.462Z,51.15
2019-04-22T19:34:44.320Z,51.51
2019-04-22T19:37:13.285Z,51.70
2019-04-22T19:39:52.649Z,51.79
2019-04-22T19:42:24.488Z,51.98
2019-04-22T19:44:53.452Z,52.30
2019-04-22T19:47:38.212Z,52.44
2019-04-22T19:49:57.914Z,52.75
2019-04-22T19:54:57.268Z,53.47
2019-04-22T19:57:22.537Z,53.87
2019-04-22T19:59:55.851Z,54.23
2019-04-22T20:02:45.195Z,54.26
2019-04-22T20:05:30.083Z,54.55
2019-04-22T20:07:58.894Z,54.79
2019-04-22T20:10:30.040Z,55.03
2019-04-22T20:13:05.055Z,55.09
2019-04-22T20:15:29.267Z,55.45
2019-04-22T20:18:21.730Z,55.60
2019-04-22T20:20:42.235Z,55.73
2019-04-22T20:23:05.169Z,56.11
2019-04-22T20:25:35.927Z,56.30
2019-04-22T20:28:15.077Z,56.35
2019-04-22T20:30:39.969Z,56.47
2019-04-22T20:33:13.877Z,56.61
2019-04-22T20:35:46.585Z,56.66
2019-04-22T20:38:13.541Z,56.70
2019-04-22T20:40:42.538Z,56.77
2019-04-22T20:43:26.173Z,56.84
2019-04-22T20:45:51.188Z,57.04
2019-04-22T20:48:07.875Z,57.09
2019-04-22T20:50:54.847Z,57.22
2019-04-22T20:53:28.109Z,57.22
2019-04-22T20:55:52.494Z,57.08
2019-04-22T20:58:28.618Z,57.36
2019-04-22T21:00:50.219Z,57.27
2019-04-22T21:03:20.875Z,57.36
2019-04-22T21:05:52.624Z,57.45
2019-04-22T21:08:36.633Z,57.54
2019-04-22T21:10:57.926Z,57.61
2019-04-22T21:13:27.850Z,57.49
2019-04-22T21:16:10.594Z,57.43
2019-04-22T21:18:30.540Z,57.52
2019-04-22T21:21:11.407Z,57.92
2019-04-22T21:23:36.613Z,57.77
2019-04-22T21:26:11.096Z,57.82
2019-04-22T21:28:42.967Z,57.77
2019-04-22T21:31:18.933Z,57.91
2019-04-22T21:33:47.239Z,57.86
2019-04-22T21:36:20.659Z,57.81
2019-04-22T21:38:48.375Z,57.77
2019-04-22T21:41:16.099Z,58.03
2019-04-22T21:43:54.767Z,57.92
2019-04-22T21:46:23.190Z,57.62
2019-04-22T21:48:53.088Z,57.73
2019-04-22T21:51:29.077Z,57.76
2019-04-22T21:59:01.859Z,57.64
2019-04-22T22:01:52.878Z,57.48
2019-04-22T22:04:16.987Z,57.42
2019-04-22T22:06:39.624Z,57.43
2019-04-22T22:09:20.484Z,57.29
2019-04-22T22:11:46.248Z,57.30
2019-04-22T22:14:20.839Z,57.27
2019-04-22T22:16:45.977Z,57.20
2019-04-22T22:19:24.008Z,57.31
2019-04-22T22:22:02.407Z,57.26
2019-04-22T22:24:28.920Z,56.97
2019-04-22T22:26:57.117Z,56.61
2019-04-22T22:29:36.949Z,56.70
2019-04-22T22:32:02.712Z,56.65
2019-04-22T22:34:26.725Z,56.61
2019-04-22T22:36:52.860Z,56.52
2019-04-22T22:39:24.902Z,56.48
2019-04-22T22:41:44.028Z,56.47
2019-04-22T22:44:23.499Z,56.35
2019-04-22T22:47:05.008Z,56.64
2019-04-22T22:49:42.855Z,56.64
2019-04-22T22:52:32.515Z,56.60
2019-04-22T22:54:43.978Z,56.59
2019-04-22T22:57:19.502Z,56.47
2019-04-22T22:59:42.999Z,56.53
2019-04-22T23:02:11.567Z,56.50
2019-04-22T23:04:46.002Z,56.42
2019-04-22T23:07:22.572Z,56.22
2019-04-22T23:09:47.343Z,56.33
2019-04-22T23:12:31.467Z,56.12
2019-04-22T23:14:51.462Z,56.06
2019-04-22T23:17:07.093Z,56.27
2019-04-22T23:19:33.697Z,56.17
2019-04-22T23:22:14.503Z,56.23
2019-04-22T23:24:50.575Z,56.19
2019-04-22T23:27:26.213Z,56.27
2019-04-22T23:30:15.655Z,56.15
2019-04-22T23:32:43.565Z,56.40
2019-04-22T23:35:46.654Z,56.47
2019-04-22T23:38:16.488Z,56.09
2019-04-22T23:40:51.815Z,56.14
2019-04-22T23:43:27.545Z,56.14
2019-04-22T23:45:56.423Z,55.99
2019-04-22T23:48:27.106Z,56.03
2019-04-22T23:51:07.256Z,55.87
2019-04-22T23:54:04.309Z,55.91
2019-04-22T23:56:09.233Z,55.63
